This is the latest recevied weather packets stored in our database for station/object 9M2SAR-10. If no packets are shown the sender has not sent any weather packets the latest 10 day(s).
| Time | Temp. | Humidity | Pressure | Rain* | Wind** | Luminosity | Snow |
|---|---|---|---|---|---|---|---|
| 1777794393 | 33.33° C | 100% | 1006.6 hPa | - | - | - | - |
| 1777793493 | 33.89° C | 100% | 1007.3 hPa | - | - | - | - |
| 1777792593 | 35° C | 100% | 1007.4 hPa | - | - | - | - |
| 1777791693 | 36.11° C | 100% | 1007.7 hPa | - | - | - | - |
| 1777790793 | 36.11° C | 100% | 1008 hPa | - | - | - | - |
| 1777789893 | 35.56° C | 100% | 1008.3 hPa | - | - | - | - |
| 1777788993 | 35.56° C | 100% | 1008.6 hPa | - | - | - | - |
| 1777788093 | 35.56° C | 100% | 1008.8 hPa | - | - | - | - |
| 1777787192 | 36.11° C | 100% | 1009 hPa | - | - | - | - |
| 1777786292 | 35.56° C | 100% | 1009.2 hPa | - | - | - | - |
| 1777785392 | 35.56° C | 100% | 1009.8 hPa | - | - | - | - |
| 1777784492 | 35° C | 100% | 1010.2 hPa | - | - | - | - |
| 1777783592 | 35.56° C | 100% | 1010.6 hPa | - | - | - | - |
| 1777782692 | 35° C | 100% | 1010.8 hPa | - | - | - | - |
| 1777781792 | 34.44° C | 100% | 1010.8 hPa | - | - | - | - |
| 1777780892 | 33.33° C | 100% | 1010.8 hPa | - | - | - | - |
| 1777779992 | 33.33° C | 100% | 1010.9 hPa | - | - | - | - |
| 1777779092 | 32.22° C | 100% | 1011 hPa | - | - | - | - |
| 1777778192 | 32.22° C | 100% | 1011 hPa | - | - | - | - |
| 1777777292 | 32.78° C | 100% | 1011.2 hPa | - | - | - | - |
| 1777776392 | 31.67° C | 100% | 1011.2 hPa | - | - | - | - |
| 1777773691 | 30.56° C | 100% | 1011 hPa | - | - | - | - |
| 1777772791 | 30° C | 100% | 1010.8 hPa | - | - | - | - |
| 1777768291 | 27.78° C | 100% | 1009.8 hPa | - | - | - | - |
| 1777767390 | 27.22° C | 100% | 1009.7 hPa | - | - | - | - |
* Rain since midnight (hover to see other rain measurements)
** Current wind speed in m/s (hover to see current wind gust speed)